Time;durP1;ratioP1;P1;durP2;ratioP2;P2;SDS_P1;SDS_P2;PMS_P1;PMS_P2;Temp;Humidity;BMP_temperature;BMP_pressure;BME280_temperature;BME280_humidity;BME280_pressure;Samples;Min_cycle;Max_cycle;Signal;HPM_P1;HPM_P2
2022/05/04 00:00:10;;;;;;;13.97;11.87;;;10.40;99.90;;;;;;5070580;28;20460;-62
2022/05/04 00:02:37;;;;;;;12.97;10.50;;;10.30;99.90;;;;;;5070328;28;20502;-63
2022/05/04 00:05:05;;;;;;;17.93;11.33;;;10.40;99.90;;;;;;5070165;28;20476;-65
2022/05/04 00:07:32;;;;;;;15.37;9.87;;;10.40;99.90;;;;;;5070529;28;20472;-62
2022/05/04 00:10:00;;;;;;;15.10;11.50;;;10.40;99.90;;;;;;5070222;28;21087;-63
2022/05/04 00:12:28;;;;;;;14.43;10.70;;;10.40;99.90;;;;;;5070309;28;20790;-63
2022/05/04 00:14:55;;;;;;;13.70;10.80;;;10.40;99.90;;;;;;5070465;28;20453;-64
2022/05/04 00:17:22;;;;;;;14.23;11.57;;;10.40;99.90;;;;;;5070442;28;20484;-63
2022/05/04 00:19:49;;;;;;;12.83;10.33;;;10.30;99.90;;;;;;5070029;28;20972;-64
2022/05/04 00:22:20;;;;;;;15.10;11.03;;;10.30;99.90;;;;;;5070088;28;20446;-62
2022/05/04 00:24:48;;;;;;;15.83;12.63;;;10.40;99.90;;;;;;5070242;28;20940;-63
2022/05/04 00:27:16;;;;;;;19.27;11.80;;;10.30;99.90;;;;;;5069459;28;20452;-64
2022/05/04 00:29:45;;;;;;;14.50;11.67;;;10.30;99.90;;;;;;5069812;28;20565;-62
2022/05/04 00:32:13;;;;;;;14.37;10.80;;;10.20;99.90;;;;;;5069982;28;20452;-64
2022/05/04 00:34:40;;;;;;;17.73;10.80;;;10.30;99.90;;;;;;5070063;28;20453;-65
2022/05/04 00:37:07;;;;;;;14.07;10.17;;;10.30;99.90;;;;;;5069887;28;20487;-63
2022/05/04 00:39:35;;;;;;;14.07;9.60;;;10.40;99.90;;;;;;5070076;28;20473;-62
2022/05/04 00:42:09;;;;;;;15.70;10.87;;;10.50;99.90;;;;;;5069568;28;20506;-62
2022/05/04 00:44:36;;;;;;;12.13;9.80;;;10.50;99.90;;;;;;5069503;28;20455;-64
2022/05/04 00:47:06;;;;;;;14.50;11.50;;;10.40;99.90;;;;;;5069772;28;20445;-62
2022/05/04 00:49:33;;;;;;;12.80;9.83;;;10.20;99.90;;;;;;5069782;28;20508;-62
2022/05/04 00:52:00;;;;;;;12.73;10.47;;;10.30;99.90;;;;;;5069900;28;20789;-64
2022/05/04 00:54:28;;;;;;;13.40;10.50;;;10.20;99.90;;;;;;5069854;28;20453;-64
2022/05/04 00:56:55;;;;;;;12.03;10.37;;;10.10;99.90;;;;;;5069387;28;20492;-62
2022/05/04 00:59:22;;;;;;;13.23;10.80;;;9.90;99.90;;;;;;5069447;28;20892;-63
2022/05/04 01:01:49;;;;;;;11.67;10.23;;;10.00;99.90;;;;;;5069624;28;20535;-64
2022/05/04 01:04:18;;;;;;;11.00;9.23;;;10.10;99.90;;;;;;5069109;28;20489;-65
2022/05/04 01:06:46;;;;;;;10.60;9.40;;;10.10;99.90;;;;;;5069493;28;20465;-65
2022/05/04 01:09:14;;;;;;;16.00;9.93;;;10.10;99.90;;;;;;5064788;28;21008;-63
2022/05/04 01:11:41;;;;;;;12.80;9.63;;;10.10;99.90;;;;;;5049052;28;20989;-65
2022/05/04 01:14:09;;;;;;;11.83;10.37;;;10.10;99.90;;;;;;5049128;28;20457;-64
2022/05/04 01:16:38;;;;;;;11.10;9.30;;;10.10;99.90;;;;;;5049218;28;20489;-61
2022/05/04 01:19:06;;;;;;;13.70;10.13;;;9.80;99.90;;;;;;5049450;28;20473;-63
2022/05/04 01:21:34;;;;;;;11.33;10.07;;;9.80;99.90;;;;;;5049554;28;20500;-63
2022/05/04 01:24:04;;;;;;;12.07;9.23;;;9.80;99.90;;;;;;5049335;28;20445;-63
2022/05/04 01:26:31;;;;;;;11.40;9.83;;;9.90;99.90;;;;;;5049367;28;20446;-64
2022/05/04 01:28:58;;;;;;;11.80;9.87;;;10.00;99.90;;;;;;5049271;28;21064;-64
2022/05/04 01:31:25;;;;;;;11.20;10.00;;;10.10;99.90;;;;;;5049411;28;20503;-65
2022/05/04 01:33:52;;;;;;;12.13;9.70;;;10.10;99.90;;;;;;5049364;28;20454;-63
2022/05/04 01:36:19;;;;;;;14.63;11.00;;;10.00;99.90;;;;;;5048748;28;20694;-64
2022/05/04 01:38:46;;;;;;;11.33;9.23;;;9.90;99.90;;;;;;5051623;28;20523;-62
2022/05/04 01:43:59;;;;;;;14.13;10.50;;;10.00;99.90;;;;;;5053300;28;20501;-64
2022/05/04 01:46:26;;;;;;;11.43;9.17;;;10.00;99.90;;;;;;5053205;28;20847;-63
2022/05/04 01:48:54;;;;;;;14.03;9.80;;;10.00;99.90;;;;;;5052816;28;20508;-64
2022/05/04 01:51:21;;;;;;;11.10;9.20;;;10.00;99.90;;;;;;5053161;28;20460;-62
2022/05/04 01:53:48;;;;;;;12.63;9.60;;;9.90;99.90;;;;;;5053363;28;20458;-63
2022/05/04 01:56:16;;;;;;;12.40;9.57;;;9.80;99.90;;;;;;5053206;28;20481;-63
2022/05/04 01:58:43;;;;;;;12.97;9.43;;;9.70;99.90;;;;;;5053128;28;20874;-64
2022/05/04 02:01:10;;;;;;;15.30;9.87;;;9.80;99.90;;;;;;5053053;28;20591;-63
2022/05/04 02:03:38;;;;;;;15.37;12.33;;;9.70;99.90;;;;;;5052567;28;21415;-61
2022/05/04 02:06:06;;;;;;;13.53;9.90;;;9.70;99.90;;;;;;5052617;28;20458;-63
2022/05/04 02:08:34;;;;;;;14.10;9.40;;;9.70;99.90;;;;;;5052581;28;20477;-63
2022/05/04 02:11:01;;;;;;;12.70;9.97;;;9.70;99.90;;;;;;5069681;28;21036;-62
2022/05/04 02:13:29;;;;;;;15.77;9.87;;;9.60;99.90;;;;;;5072431;28;20444;-62
2022/05/04 02:15:57;;;;;;;14.33;10.03;;;9.60;99.90;;;;;;5072321;28;20674;-64
2022/05/04 02:18:24;;;;;;;13.07;10.50;;;9.50;99.90;;;;;;5072597;28;20861;-63
2022/05/04 02:20:51;;;;;;;11.87;8.93;;;9.50;99.90;;;;;;5072412;28;20445;-63
2022/05/04 02:23:18;;;;;;;12.17;9.37;;;9.50;99.90;;;;;;5072546;28;20973;-63
2022/05/04 02:25:45;;;;;;;17.00;10.43;;;9.40;99.90;;;;;;5072565;28;20976;-65
2022/05/04 02:28:13;;;;;;;9.63;7.70;;;9.40;99.90;;;;;;5072340;28;20515;-64
2022/05/04 02:30:41;;;;;;;13.80;9.20;;;9.40;99.90;;;;;;5072305;28;20460;-62
2022/05/04 02:33:08;;;;;;;11.20;7.80;;;9.50;99.90;;;;;;5072143;28;20961;-64
2022/05/04 02:38:21;;;;;;;11.53;8.77;;;9.30;99.90;;;;;;5071759;28;20484;-64
2022/05/04 02:40:48;;;;;;;10.30;7.73;;;9.30;99.90;;;;;;5072322;28;20453;-63
2022/05/04 02:43:16;;;;;;;11.70;9.47;;;9.30;99.90;;;;;;5071782;28;20457;-65
2022/05/04 02:45:44;;;;;;;10.30;7.80;;;9.20;99.90;;;;;;5071973;28;20920;-63
2022/05/04 02:48:11;;;;;;;11.63;8.50;;;9.20;99.90;;;;;;5071765;28;20477;-64
2022/05/04 02:50:39;;;;;;;13.43;9.00;;;9.20;99.90;;;;;;5070560;28;20991;-63
2022/05/04 02:53:06;;;;;;;9.10;7.27;;;9.20;99.90;;;;;;5071872;28;20456;-63
2022/05/04 02:55:33;;;;;;;11.27;7.80;;;9.30;99.90;;;;;;5071558;28;20452;-63
2022/05/04 02:58:01;;;;;;;13.37;7.90;;;9.30;99.90;;;;;;5071438;28;20973;-65
2022/05/04 03:00:28;;;;;;;16.83;7.70;;;9.40;99.90;;;;;;5071672;28;20968;-61
2022/05/04 03:02:56;;;;;;;10.37;7.83;;;9.40;99.90;;;;;;5071624;28;20457;-63
2022/05/04 03:05:23;;;;;;;9.63;7.20;;;9.40;99.90;;;;;;5071615;28;20485;-62
2022/05/04 03:07:51;;;;;;;10.00;7.33;;;9.40;99.90;;;;;;5071776;28;20441;-62
2022/05/04 03:10:18;;;;;;;10.83;7.23;;;9.30;99.90;;;;;;5071187;28;20506;-62
2022/05/04 03:12:46;;;;;;;14.90;7.50;;;9.20;99.90;;;;;;5071521;28;20510;-63
2022/05/04 03:15:13;;;;;;;11.47;7.97;;;9.30;99.90;;;;;;5071408;28;20449;-64
2022/05/04 03:17:40;;;;;;;10.03;7.50;;;9.30;99.90;;;;;;5070668;28;21043;-63
2022/05/04 03:20:12;;;;;;;9.50;6.63;;;9.20;99.90;;;;;;5071432;28;20460;-62
2022/05/04 03:22:39;;;;;;;9.60;6.90;;;9.20;99.90;;;;;;5070987;28;20464;-62
2022/05/04 03:25:09;;;;;;;9.50;6.47;;;9.30;99.90;;;;;;5070857;28;21200;-64
2022/05/04 03:27:36;;;;;;;8.97;7.00;;;9.20;99.90;;;;;;5071098;28;20456;-65
2022/05/04 03:30:05;;;;;;;9.73;6.13;;;9.10;99.90;;;;;;5070923;28;20476;-64
2022/05/04 03:32:32;;;;;;;9.57;7.40;;;9.00;99.90;;;;;;5071287;28;20492;-62
2022/05/04 03:34:59;;;;;;;9.67;7.57;;;8.90;99.90;;;;;;5071324;28;20468;-62
2022/05/04 03:37:27;;;;;;;9.07;7.23;;;8.90;99.90;;;;;;5070773;28;20489;-64
2022/05/04 03:39:54;;;;;;;9.87;7.40;;;8.70;99.90;;;;;;5070803;28;20465;-64
2022/05/04 03:42:21;;;;;;;11.37;7.07;;;8.70;99.90;;;;;;5071121;28;20452;-64
2022/05/04 03:44:50;;;;;;;10.00;7.27;;;8.70;99.90;;;;;;5071085;28;20855;-64
2022/05/04 03:47:17;;;;;;;9.80;6.27;;;8.50;99.90;;;;;;5070975;28;20969;-63
2022/05/04 03:49:44;;;;;;;8.37;6.13;;;8.50;99.90;;;;;;5071053;28;20472;-65
2022/05/04 03:52:11;;;;;;;10.87;5.97;;;8.60;99.90;;;;;;5070847;28;20457;-63
2022/05/04 03:54:40;;;;;;;6.97;4.97;;;8.80;99.90;;;;;;5070717;28;20792;-63
2022/05/04 03:57:07;;;;;;;7.90;6.10;;;8.90;99.90;;;;;;5070231;28;20480;-63
2022/05/04 03:59:34;;;;;;;8.40;5.93;;;9.00;99.90;;;;;;5070758;28;20464;-63
2022/05/04 04:02:01;;;;;;;7.60;5.27;;;9.10;99.90;;;;;;5070046;28;20816;-64
2022/05/04 04:04:28;;;;;;;7.03;5.47;;;9.20;99.90;;;;;;5070097;28;20495;-64
2022/05/04 04:06:55;;;;;;;7.70;5.10;;;9.40;99.90;;;;;;5070427;28;20508;-62
2022/05/04 04:09:22;;;;;;;8.83;6.10;;;9.50;99.90;;;;;;5070245;28;20532;-65
2022/05/04 04:11:51;;;;;;;8.60;5.80;;;9.40;99.90;;;;;;5070109;28;20522;-64
2022/05/04 04:14:19;;;;;;;9.43;5.50;;;9.60;99.90;;;;;;5070443;28;20826;-63
2022/05/04 04:16:46;;;;;;;8.90;5.40;;;9.70;99.90;;;;;;5070530;28;20859;-63
2022/05/04 04:19:13;;;;;;;6.60;4.93;;;9.70;99.90;;;;;;5069971;28;20472;-63
2022/05/04 04:21:52;;;;;;;9.10;5.97;;;9.80;99.90;;;;;;5070201;28;20452;-63
2022/05/04 04:24:19;;;;;;;9.83;6.13;;;9.80;99.90;;;;;;5070360;28;20452;-63
2022/05/04 04:26:46;;;;;;;12.30;7.57;;;9.80;99.90;;;;;;5070353;28;20449;-62
2022/05/04 04:29:15;;;;;;;14.83;7.00;;;10.10;99.90;;;;;;5070030;28;20473;-64
2022/05/04 04:31:42;;;;;;;9.13;6.50;;;9.80;99.90;;;;;;5069962;28;20841;-64
2022/05/04 04:34:09;;;;;;;16.17;6.80;;;9.90;99.90;;;;;;5069832;28;20453;-65
2022/05/04 04:36:36;;;;;;;8.70;7.10;;;9.90;99.90;;;;;;5069850;28;20445;-63
2022/05/04 04:39:04;;;;;;;10.37;7.47;;;10.00;99.90;;;;;;5069834;28;20489;-63
2022/05/04 04:41:31;;;;;;;13.40;8.03;;;10.10;99.90;;;;;;5070079;28;20456;-65
2022/05/04 04:43:58;;;;;;;12.03;7.73;;;10.00;99.90;;;;;;5070050;28;20469;-64
2022/05/04 04:46:26;;;;;;;11.87;7.70;;;10.10;99.90;;;;;;5069618;28;20906;-64
2022/05/04 04:48:54;;;;;;;10.40;6.97;;;10.10;99.90;;;;;;5069658;28;20867;-64
2022/05/04 04:51:21;;;;;;;13.53;7.70;;;10.20;99.90;;;;;;5069709;28;20488;-63
2022/05/04 04:53:48;;;;;;;10.77;8.00;;;10.40;99.90;;;;;;5069854;28;20461;-63
2022/05/04 04:56:15;;;;;;;10.70;8.40;;;10.60;99.90;;;;;;5069889;28;20478;-64
2022/05/04 04:58:42;;;;;;;14.97;10.00;;;10.80;99.90;;;;;;5069360;28;20575;-65
2022/05/04 05:01:09;;;;;;;18.37;12.10;;;10.50;99.90;;;;;;5069546;28;20826;-65
2022/05/04 05:03:37;;;;;;;15.00;9.77;;;10.60;99.90;;;;;;5069368;28;20453;-64
2022/05/04 05:06:04;;;;;;;13.80;9.97;;;10.80;99.90;;;;;;5069638;28;20460;-64
2022/05/04 05:08:31;;;;;;;12.20;9.37;;;11.00;99.90;;;;;;5069551;28;20870;-69
2022/05/04 05:10:58;;;;;;;17.87;9.53;;;11.00;99.90;;;;;;5069546;28;20457;-63
2022/05/04 05:13:25;;;;;;;10.43;8.97;;;11.10;99.90;;;;;;5068846;28;20448;-67
2022/05/04 05:16:07;;;;;;;12.60;8.50;;;11.20;99.90;;;;;;5069339;28;20528;-66
2022/05/04 05:18:34;;;;;;;11.23;9.73;;;11.10;99.90;;;;;;5069345;28;20587;-66
2022/05/04 05:21:02;;;;;;;11.13;9.00;;;11.20;99.90;;;;;;5069345;28;20453;-67
2022/05/04 05:23:29;;;;;;;14.63;9.83;;;11.30;99.90;;;;;;5069338;28;20445;-68
2022/05/04 05:25:57;;;;;;;12.83;8.90;;;11.40;99.90;;;;;;5069246;28;20449;-66
2022/05/04 05:28:24;;;;;;;14.97;8.80;;;11.40;99.90;;;;;;5069181;28;20492;-67
2022/05/04 05:30:51;;;;;;;11.23;9.63;;;11.60;99.90;;;;;;5069158;28;20452;-67
2022/05/04 05:33:18;;;;;;;12.00;9.80;;;11.50;99.90;;;;;;5069128;28;20457;-67
2022/05/04 05:35:45;;;;;;;11.50;9.50;;;11.50;99.90;;;;;;5069361;28;20457;-68
2022/05/04 05:38:13;;;;;;;14.73;9.30;;;11.60;99.90;;;;;;5069017;28;20488;-68
2022/05/04 05:40:41;;;;;;;16.87;10.27;;;11.60;99.90;;;;;;5068997;28;20488;-69
2022/05/04 05:43:09;;;;;;;12.20;10.70;;;11.70;99.90;;;;;;5069288;28;20449;-67
2022/05/04 05:45:36;;;;;;;12.83;10.03;;;11.70;99.90;;;;;;5069338;28;20444;-68
2022/05/04 05:48:04;;;;;;;15.90;12.20;;;11.80;99.90;;;;;;5069271;28;20535;-67
2022/05/04 05:50:33;;;;;;;22.67;10.60;;;11.90;99.90;;;;;;5068641;28;20500;-68
2022/05/04 05:53:00;;;;;;;12.77;9.93;;;12.20;99.90;;;;;;5068708;28;20464;-68
2022/05/04 05:55:29;;;;;;;13.10;10.30;;;12.30;99.90;;;;;;5068899;28;20464;-68
2022/05/04 05:57:56;;;;;;;15.07;10.13;;;12.50;99.90;;;;;;5068863;28;20875;-69
2022/05/04 06:00:23;;;;;;;16.60;10.70;;;12.50;99.90;;;;;;5069005;28;20548;-68
2022/05/04 06:02:50;;;;;;;12.17;10.50;;;12.50;99.90;;;;;;5068939;28;20898;-68
2022/05/04 06:05:17;;;;;;;15.67;10.80;;;12.70;99.90;;;;;;5068511;28;20563;-68
2022/05/04 06:07:44;;;;;;;20.23;10.43;;;12.90;99.90;;;;;;5068744;28;20968;-65
2022/05/04 06:10:12;;;;;;;13.90;11.30;;;12.90;99.90;;;;;;5068629;28;20460;-64
2022/05/04 06:12:40;;;;;;;13.53;11.07;;;13.00;99.90;;;;;;5068788;28;20814;-65
2022/05/04 06:15:09;;;;;;;14.50;11.67;;;12.90;99.90;;;;;;5068731;28;20457;-66
2022/05/04 06:17:36;;;;;;;14.63;11.10;;;13.00;99.90;;;;;;5068816;28;20571;-65
2022/05/04 06:20:05;;;;;;;13.53;10.70;;;13.10;99.90;;;;;;5067847;28;20477;-65
2022/05/04 06:22:32;;;;;;;12.20;10.90;;;13.30;99.90;;;;;;5068439;28;20453;-64
2022/05/04 06:24:59;;;;;;;12.73;11.47;;;13.50;99.90;;;;;;5069498;28;20464;-65
2022/05/04 06:27:28;;;;;;;17.27;12.47;;;13.80;99.90;;;;;;5071380;28;20456;-64
2022/05/04 06:35:26;;;;;;;13.90;11.70;;;13.60;99.90;;;;;;5072177;28;20477;-63
2022/05/04 06:37:53;;;;;;;12.67;11.40;;;13.90;99.90;;;;;;5072020;28;20476;-64
2022/05/04 06:40:21;;;;;;;19.80;12.60;;;14.10;99.90;;;;;;5072183;28;20540;-65
2022/05/04 06:42:48;;;;;;;16.27;12.60;;;14.20;99.90;;;;;;5072065;28;20879;-66
2022/05/04 06:45:17;;;;;;;15.00;12.60;;;14.40;99.90;;;;;;5071804;28;20453;-64
2022/05/04 06:47:44;;;;;;;15.03;11.60;;;14.50;99.90;;;;;;5072131;28;20453;-63
2022/05/04 06:50:11;;;;;;;15.13;12.27;;;14.60;99.90;;;;;;5071747;28;20460;-65
2022/05/04 06:52:38;;;;;;;16.47;12.83;;;14.80;99.90;;;;;;5071828;28;20453;-64
2022/05/04 06:55:06;;;;;;;16.63;12.23;;;14.80;99.90;;;;;;5071916;28;20512;-67
2022/05/04 06:57:33;;;;;;;21.03;15.23;;;14.90;99.90;;;;;;5071651;28;20461;-66
2022/05/04 07:00:00;;;;;;;16.63;12.60;;;15.10;99.90;;;;;;5070539;28;20471;-67
2022/05/04 07:02:28;;;;;;;16.60;12.10;;;15.30;99.90;;;;;;5071440;28;20815;-67
2022/05/04 07:04:55;;;;;;;15.77;11.90;;;15.20;99.90;;;;;;5071316;28;20489;-64
2022/05/04 07:07:22;;;;;;;16.83;11.93;;;15.40;99.90;;;;;;5071570;28;20444;-65
2022/05/04 07:09:49;;;;;;;15.80;12.90;;;15.60;99.90;;;;;;5071108;28;20555;-67
2022/05/04 07:12:16;;;;;;;19.77;13.27;;;15.70;99.90;;;;;;5071520;28;20444;-66
2022/05/04 07:14:44;;;;;;;18.30;12.30;;;15.90;99.90;;;;;;5071503;28;20488;-64
2022/05/04 07:17:12;;;;;;;14.47;12.50;;;15.90;99.90;;;;;;5071608;28;20532;-64
2022/05/04 07:19:40;;;;;;;13.00;10.40;;;16.00;99.90;;;;;;5071458;28;20496;-63
2022/05/04 07:22:07;;;;;;;16.40;12.30;;;16.20;99.90;;;;;;5071233;28;20457;-66
2022/05/04 07:24:34;;;;;;;14.73;12.17;;;16.30;99.90;;;;;;5070977;28;20460;-65
2022/05/04 07:27:01;;;;;;;14.17;11.60;;;16.60;99.90;;;;;;5070917;28;20453;-65
2022/05/04 07:29:28;;;;;;;14.10;10.97;;;16.70;99.90;;;;;;5071067;28;20480;-67
2022/05/04 07:31:55;;;;;;;15.20;10.87;;;16.60;99.90;;;;;;5071320;28;20448;-68
2022/05/04 07:34:22;;;;;;;20.10;11.03;;;16.70;99.90;;;;;;5071234;28;20453;-70
2022/05/04 07:36:51;;;;;;;17.70;12.77;;;16.80;99.90;;;;;;5070873;28;20491;-67
2022/05/04 07:44:43;;;;;;;14.23;9.60;;;17.50;99.90;;;;;;5070976;28;20428;-66
2022/05/04 07:47:10;;;;;;;12.97;10.83;;;17.70;99.90;;;;;;5070867;28;20456;-67
2022/05/04 07:49:37;;;;;;;12.67;8.93;;;17.50;99.90;;;;;;5070537;28;20862;-66
2022/05/04 07:52:06;;;;;;;13.53;9.60;;;17.60;99.90;;;;;;5070509;28;20893;-69
2022/05/04 07:54:33;;;;;;;12.33;10.13;;;17.70;99.90;;;;;;5070528;28;20472;-67
2022/05/04 07:57:00;;;;;;;11.80;9.60;;;18.00;99.90;;;;;;5070838;28;20504;-67
2022/05/04 07:59:27;;;;;;;13.27;10.67;;;18.20;99.80;;;;;;5070568;28;21001;-67
2022/05/04 08:04:39;;;;;;;14.17;11.40;;;18.50;98.70;;;;;;5070051;28;21016;-64
2022/05/04 08:07:07;;;;;;;13.10;9.30;;;18.70;97.80;;;;;;5070128;28;20464;-67
2022/05/04 08:09:36;;;;;;;10.87;8.00;;;18.60;96.30;;;;;;5070433;28;20464;-67
2022/05/04 08:12:06;;;;;;;11.40;7.03;;;18.70;96.40;;;;;;5070277;28;20544;-69
2022/05/04 08:14:33;;;;;;;10.07;7.13;;;18.80;95.10;;;;;;5069715;28;20461;-67
2022/05/04 08:17:00;;;;;;;8.30;7.03;;;18.70;94.00;;;;;;5070086;28;20931;-65
2022/05/04 08:19:27;;;;;;;13.20;7.23;;;18.60;93.40;;;;;;5069871;28;20630;-66
2022/05/04 08:21:56;;;;;;;11.00;6.20;;;18.70;93.70;;;;;;5069909;28;20456;-65
2022/05/04 08:24:24;;;;;;;9.67;6.80;;;19.00;93.40;;;;;;5070108;28;20551;-70
2022/05/04 08:26:52;;;;;;;8.37;6.60;;;19.40;93.40;;;;;;5070134;28;20453;-68
2022/05/04 08:29:19;;;;;;;7.87;5.17;;;19.60;93.60;;;;;;5070025;28;20696;-63
2022/05/04 08:31:46;;;;;;;10.63;5.93;;;19.80;92.20;;;;;;5069780;28;20544;-65
2022/05/04 08:34:13;;;;;;;10.13;6.10;;;19.90;90.90;;;;;;5069813;28;20453;-64
2022/05/04 08:36:40;;;;;;;16.60;6.43;;;20.10;90.00;;;;;;5069743;28;21006;-64
2022/05/04 08:39:08;;;;;;;7.10;4.80;;;20.30;87.80;;;;;;5069581;28;20492;-65
2022/05/04 08:41:41;;;;;;;9.03;4.80;;;20.40;85.40;;;;;;5070142;28;20467;-64
2022/05/04 08:44:09;;;;;;;7.00;4.80;;;20.60;82.60;;;;;;5069718;28;20444;-65
2022/05/04 08:46:38;;;;;;;9.30;4.90;;;20.80;78.90;;;;;;5069532;28;20515;-66
2022/05/04 08:49:06;;;;;;;9.60;5.73;;;20.80;77.50;;;;;;5069043;28;20476;-64
2022/05/04 08:51:35;;;;;;;12.87;7.90;;;20.60;75.20;;;;;;5069854;28;20452;-64
2022/05/04 08:54:03;;;;;;;9.37;5.90;;;20.60;74.20;;;;;;5069701;28;20814;-64
2022/05/04 08:56:30;;;;;;;6.00;3.80;;;20.60;74.70;;;;;;5069166;28;20506;-64
2022/05/04 08:58:59;;;;;;;9.20;4.30;;;20.70;73.70;;;;;;5069125;28;20575;-65
2022/05/04 09:01:28;;;;;;;7.60;5.33;;;20.80;73.20;;;;;;5069616;28;20453;-63
2022/05/04 09:04:03;;;;;;;7.03;4.80;;;20.90;73.40;;;;;;5068560;28;20487;-64
2022/05/04 09:06:32;;;;;;;6.50;3.93;;;21.20;73.10;;;;;;5068923;28;20969;-64
2022/05/04 09:09:04;;;;;;;8.07;4.07;;;21.30;70.60;;;;;;5069033;28;20957;-65
2022/05/04 09:11:32;;;;;;;5.90;3.50;;;21.30;70.00;;;;;;5069325;28;20468;-66
2022/05/04 09:14:07;;;;;;;7.40;3.50;;;21.20;68.70;;;;;;5069260;28;20810;-66
2022/05/04 09:16:35;;;;;;;5.47;3.33;;;21.30;69.40;;;;;;5069406;28;20463;-67
2022/05/04 09:19:03;;;;;;;6.90;3.10;;;21.50;69.30;;;;;;5069335;28;21091;-65
2022/05/04 09:21:30;;;;;;;5.23;2.83;;;21.60;71.50;;;;;;5069126;28;20449;-64
2022/05/04 09:23:57;;;;;;;5.07;3.00;;;21.80;71.20;;;;;;5069196;28;20744;-63
2022/05/04 09:26:24;;;;;;;5.80;2.80;;;21.90;70.50;;;;;;5069232;28;20444;-64
2022/05/04 09:28:52;;;;;;;5.20;2.83;;;21.80;69.00;;;;;;5069262;28;20961;-65
2022/05/04 09:31:25;;;;;;;5.20;2.80;;;21.70;70.00;;;;;;5068817;28;20856;-65
2022/05/04 09:33:57;;;;;;;6.47;2.90;;;21.70;68.80;;;;;;5069083;28;20878;-65
2022/05/04 09:36:32;;;;;;;6.23;2.67;;;21.70;68.20;;;;;;5069306;28;20453;-65
2022/05/04 09:47:21;;;;;;;5.20;2.80;;;21.20;66.90;;;;;;5068970;28;20502;-64
2022/05/04 09:49:49;;;;;;;4.60;2.60;;;21.50;67.90;;;;;;5068888;28;20460;-64
2022/05/04 09:52:17;;;;;;;5.63;2.63;;;21.70;68.00;;;;;;5069094;28;20549;-64
2022/05/04 09:54:46;;;;;;;5.80;2.87;;;21.80;68.40;;;;;;5068949;28;20452;-63
2022/05/04 09:57:14;;;;;;;5.63;2.90;;;21.90;69.30;;;;;;5069001;28;20449;-65
2022/05/04 09:59:43;;;;;;;5.57;2.73;;;22.10;69.80;;;;;;5071043;28;20591;-70
2022/05/04 10:02:13;;;;;;;5.70;2.70;;;22.20;68.10;;;;;;5072676;28;20815;-71
2022/05/04 10:04:43;;;;;;;5.60;3.07;;;22.30;67.90;;;;;;5072511;28;20484;-64
2022/05/04 10:07:11;;;;;;;4.90;2.60;;;22.20;66.80;;;;;;5072349;28;20453;-68
2022/05/04 10:09:41;;;;;;;4.73;2.33;;;22.30;66.40;;;;;;5072363;28;20473;-68
2022/05/04 10:12:09;;;;;;;5.70;3.37;;;22.20;64.60;;;;;;5072699;28;20444;-68
2022/05/04 10:14:39;;;;;;;4.50;2.20;;;22.30;65.50;;;;;;5072650;28;20460;-68
2022/05/04 10:17:12;;;;;;;7.10;4.97;;;22.60;66.80;;;;;;5072595;28;20449;-67
2022/05/04 10:19:47;;;;;;;5.43;2.97;;;23.00;66.30;;;;;;5072853;28;20520;-68
2022/05/04 10:22:18;;;;;;;6.17;2.90;;;23.00;64.00;;;;;;5072480;28;20988;-68
2022/05/04 10:24:46;;;;;;;8.00;3.87;;;23.10;64.70;;;;;;5072308;28;20448;-67
2022/05/04 10:27:18;;;;;;;11.23;4.23;;;23.00;64.00;;;;;;5072013;28;20932;-67
2022/05/04 10:32:35;;;;;;;4.50;2.57;;;23.30;61.90;;;;;;5072337;28;20436;-70
2022/05/04 10:35:34;;;;;;;6.60;3.03;;;23.50;63.40;;;;;;5072077;28;20445;-72
2022/05/04 10:38:16;;;;;;;8.47;2.93;;;23.80;62.70;;;;;;5048280;28;20480;-70
2022/05/04 10:40:50;;;;;;;4.97;2.30;;;23.90;60.30;;;;;;5072092;28;20579;-71
2022/05/04 10:43:19;;;;;;;6.13;2.80;;;23.80;60.30;;;;;;5071776;28;20459;-70
2022/05/04 10:45:49;;;;;;;5.27;3.00;;;24.00;59.90;;;;;;5071943;28;20449;-69
2022/05/04 10:48:22;;;;;;;6.27;3.40;;;24.30;59.70;;;;;;5071869;28;20508;-67
2022/05/04 10:50:53;;;;;;;6.60;3.17;;;24.30;59.70;;;;;;5071708;28;20797;-66
2022/05/04 10:53:23;;;;;;;5.43;2.80;;;24.00;59.50;;;;;;5071658;28;21017;-63
2022/05/04 10:56:02;;;;;;;4.57;2.73;;;23.80;58.40;;;;;;5071705;28;20461;-67
2022/05/04 10:58:34;;;;;;;5.03;2.47;;;23.40;58.70;;;;;;5071765;28;20468;-67
2022/05/04 11:01:07;;;;;;;4.70;2.60;;;22.90;58.60;;;;;;5071563;28;20492;-68
2022/05/04 11:03:35;;;;;;;4.30;2.30;;;22.80;59.80;;;;;;5071378;28;20910;-68
2022/05/04 11:06:10;;;;;;;4.47;2.20;;;22.70;59.30;;;;;;5071326;28;20538;-68
2022/05/04 11:08:37;;;;;;;9.57;2.67;;;23.10;60.10;;;;;;5071606;28;20508;-68
2022/05/04 11:11:05;;;;;;;5.30;2.50;;;23.50;58.90;;;;;;5070969;28;20448;-68
2022/05/04 11:13:33;;;;;;;4.17;2.37;;;23.70;59.00;;;;;;5071781;28;20841;-67
2022/05/04 11:16:01;;;;;;;5.20;3.20;;;23.90;58.70;;;;;;5071275;28;20449;-68
2022/05/04 11:18:30;;;;;;;5.27;2.80;;;23.80;59.10;;;;;;5071533;28;20914;-68
2022/05/04 11:20:57;;;;;;;5.43;2.40;;;23.90;57.20;;;;;;5071644;28;20567;-68
2022/05/04 11:23:26;;;;;;;5.03;2.30;;;23.60;57.90;;;;;;5071353;28;20444;-68
2022/05/04 11:25:53;;;;;;;4.10;1.80;;;23.60;57.00;;;;;;5071416;28;20850;-69
2022/05/04 11:28:24;;;;;;;5.50;2.50;;;23.80;57.60;;;;;;5071248;28;20481;-69
2022/05/04 11:30:52;;;;;;;5.80;2.40;;;24.00;56.70;;;;;;5071111;28;20518;-68
2022/05/04 11:33:20;;;;;;;4.77;2.37;;;24.40;56.60;;;;;;5070832;28;20453;-68
2022/05/04 11:35:53;;;;;;;5.17;3.00;;;24.50;56.00;;;;;;5071513;28;20445;-69
2022/05/04 11:38:21;;;;;;;7.80;2.23;;;24.50;56.10;;;;;;5071147;28;20507;-69
2022/05/04 11:40:52;;;;;;;4.57;2.63;;;24.90;56.80;;;;;;5070553;28;20829;-68
2022/05/04 11:43:26;;;;;;;4.67;2.50;;;25.10;55.10;;;;;;5071025;28;20505;-68
2022/05/04 11:45:53;;;;;;;6.63;2.70;;;24.60;55.50;;;;;;5071120;28;20776;-68
2022/05/04 11:48:21;;;;;;;4.70;2.40;;;24.30;56.60;;;;;;5070861;28;20465;-68
2022/05/04 11:50:48;;;;;;;4.30;2.47;;;24.10;56.60;;;;;;5070898;28;20819;-68
2022/05/04 11:53:15;;;;;;;5.00;2.43;;;23.80;56.50;;;;;;5070696;28;20445;-68
2022/05/04 11:55:43;;;;;;;4.60;2.30;;;23.50;56.40;;;;;;5070487;28;20551;-68
2022/05/04 11:58:14;;;;;;;5.37;2.50;;;23.60;56.90;;;;;;5070681;28;20465;-68
2022/05/04 12:00:41;;;;;;;7.70;2.33;;;23.90;57.20;;;;;;5070687;28;20489;-68
2022/05/04 12:03:10;;;;;;;6.90;2.50;;;24.20;56.80;;;;;;5070732;28;20449;-68
2022/05/04 12:05:39;;;;;;;5.80;2.97;;;24.20;55.30;;;;;;5070022;28;20561;-68
2022/05/04 12:08:07;;;;;;;5.00;2.60;;;24.40;57.20;;;;;;5070143;28;21023;-68
2022/05/04 12:10:35;;;;;;;4.73;2.47;;;24.90;56.60;;;;;;5070286;28;20539;-67
2022/05/04 12:13:03;;;;;;;8.03;2.60;;;25.10;54.90;;;;;;5070440;28;20808;-68
2022/05/04 12:15:32;;;;;;;5.73;2.23;;;25.30;54.40;;;;;;5070478;28;20826;-68
2022/05/04 12:18:00;;;;;;;7.00;2.40;;;25.20;53.80;;;;;;5070441;28;20518;-68
2022/05/04 12:20:28;;;;;;;4.60;2.13;;;25.00;53.30;;;;;;5070419;28;20488;-68
2022/05/04 12:22:56;;;;;;;5.37;2.40;;;24.80;53.90;;;;;;5069129;28;20460;-67
2022/05/04 12:25:24;;;;;;;4.20;2.43;;;24.70;54.00;;;;;;5070221;28;20456;-67
2022/05/04 12:27:53;;;;;;;5.93;2.60;;;24.50;53.60;;;;;;5070202;28;20543;-69
2022/05/04 12:33:11;;;;;;;5.60;2.10;;;24.10;55.10;;;;;;5069820;28;20428;-68
2022/05/04 12:35:42;;;;;;;5.80;2.23;;;24.10;55.10;;;;;;5069692;28;20464;-67
2022/05/04 12:38:10;;;;;;;5.23;2.40;;;24.20;54.80;;;;;;5070167;28;20473;-69
2022/05/04 12:40:37;;;;;;;4.40;2.37;;;24.30;54.10;;;;;;5069792;28;21016;-68
2022/05/04 12:43:05;;;;;;;4.00;1.80;;;24.60;54.80;;;;;;5070006;28;20464;-71
2022/05/04 12:45:35;;;;;;;4.53;2.00;;;24.80;54.20;;;;;;5069853;28;20453;-71
2022/05/04 12:48:02;;;;;;;11.20;2.00;;;24.90;54.00;;;;;;5069683;28;20508;-71
2022/05/04 12:50:31;;;;;;;3.90;2.07;;;24.70;54.70;;;;;;5069457;28;20479;-70
2022/05/04 12:52:58;;;;;;;4.87;2.20;;;24.60;52.80;;;;;;5069652;28;20456;-70
2022/05/04 12:58:06;;;;;;;4.80;2.93;;;24.30;52.60;;;;;;5069155;28;20503;-71
2022/05/04 13:00:33;;;;;;;4.90;2.23;;;24.10;53.60;;;;;;5069656;28;20488;-71
2022/05/04 13:03:01;;;;;;;5.80;2.33;;;24.10;53.40;;;;;;5069535;28;20835;-70
2022/05/04 13:05:28;;;;;;;4.10;1.80;;;24.20;53.90;;;;;;5069386;28;20496;-71
2022/05/04 13:07:56;;;;;;;5.23;2.83;;;24.30;54.80;;;;;;5069504;28;20448;-70
2022/05/04 13:10:23;;;;;;;6.13;2.90;;;24.10;56.00;;;;;;5069570;28;20453;-70
2022/05/04 13:12:50;;;;;;;4.60;2.60;;;24.20;57.50;;;;;;5069454;28;20459;-71
2022/05/04 13:15:17;;;;;;;6.07;2.77;;;24.70;58.30;;;;;;5069339;28;20997;-71
2022/05/04 13:17:45;;;;;;;4.40;2.20;;;25.30;57.40;;;;;;5069325;28;20445;-71
2022/05/04 13:20:14;;;;;;;5.27;2.40;;;25.70;55.90;;;;;;5069178;28;21000;-71